createdAt,value
2019-03-08T00:02:19.009Z,62.45
2019-03-08T00:04:49.783Z,61.96
2019-03-08T00:07:20.280Z,61.72
2019-03-08T00:09:51.197Z,61.67
2019-03-08T00:12:21.673Z,61.35
2019-03-08T00:14:52.805Z,60.57
2019-03-08T00:17:23.545Z,60.67
2019-03-08T00:19:54.169Z,60.08
2019-03-08T00:22:24.698Z,60.02
2019-03-08T00:24:56.996Z,59.79
2019-03-08T00:27:27.679Z,60.04
2019-03-08T00:29:59.904Z,59.86
2019-03-08T00:32:30.661Z,59.59
2019-03-08T00:35:01.322Z,59.66
2019-03-08T00:37:31.823Z,59.42
2019-03-08T00:40:02.947Z,59.13
2019-03-08T00:42:33.681Z,59.31
2019-03-08T00:45:04.483Z,59.27
2019-03-08T00:47:36.831Z,59.55
2019-03-08T00:50:07.752Z,59.50
2019-03-08T00:52:38.571Z,59.74
2019-03-08T00:55:09.173Z,60.10
2019-03-08T00:57:42.693Z,60.70
2019-03-08T01:00:16.725Z,61.34
2019-03-08T01:02:47.536Z,61.60
2019-03-08T01:05:18.735Z,61.82
2019-03-08T01:07:49.188Z,62.10
2019-03-08T01:10:21.311Z,62.64
2019-03-08T01:12:51.795Z,62.83
2019-03-08T01:15:22.280Z,63.18
2019-03-08T01:17:52.938Z,63.50
2019-03-08T01:20:23.693Z,63.59
2019-03-08T01:22:54.370Z,63.90
2019-03-08T01:25:25.242Z,64.18
2019-03-08T01:28:10.364Z,64.34
2019-03-08T01:30:41.293Z,64.49
2019-03-08T01:33:13.319Z,64.49
2019-03-08T01:35:43.916Z,64.26
2019-03-08T01:38:14.501Z,64.20
2019-03-08T01:40:45.711Z,64.09
2019-03-08T01:43:16.278Z,63.87
2019-03-08T01:45:46.740Z,63.76
2019-03-08T01:48:17.129Z,63.71
2019-03-08T01:50:48.979Z,63.72
2019-03-08T01:53:19.426Z,63.68
2019-03-08T01:55:50.521Z,63.35
2019-03-08T01:58:20.907Z,63.32
2019-03-08T02:00:51.761Z,63.27
2019-03-08T02:03:22.293Z,63.18
2019-03-08T02:05:52.998Z,63.03
2019-03-08T02:08:23.594Z,62.70
2019-03-08T02:10:54.079Z,62.65
2019-03-08T02:13:27.271Z,61.83
2019-03-08T02:15:58.189Z,61.39
2019-03-08T02:18:28.649Z,61.70
2019-03-08T02:21:06.456Z,61.26
2019-03-08T02:23:31.346Z,60.53
2019-03-08T02:26:01.728Z,60.15
2019-03-08T02:28:32.402Z,59.93
2019-03-08T02:31:03.083Z,59.64
2019-03-08T02:33:34.473Z,59.62
2019-03-08T02:36:05.876Z,59.51
2019-03-08T02:38:36.390Z,59.44
2019-03-08T02:41:07.019Z,58.73
2019-03-08T02:43:37.518Z,59.27
2019-03-08T02:46:08.164Z,59.07
2019-03-08T02:48:38.696Z,58.94
2019-03-08T02:51:09.163Z,58.89
2019-03-08T02:53:39.641Z,59.32
2019-03-08T02:56:10.477Z,59.73
2019-03-08T02:58:41.009Z,59.82
2019-03-08T03:01:13.302Z,59.99
2019-03-08T03:03:43.786Z,60.35
2019-03-08T03:06:14.290Z,60.21
2019-03-08T03:08:45.393Z,60.06
2019-03-08T03:11:15.879Z,60.06
2019-03-08T03:13:46.392Z,59.52
2019-03-08T03:16:17.101Z,59.46
2019-03-08T03:18:47.590Z,59.42
2019-03-08T03:21:18.258Z,58.75
2019-03-08T03:23:48.943Z,58.29
2019-03-08T03:26:19.679Z,58.24
2019-03-08T03:28:50.604Z,57.10
2019-03-08T03:31:20.977Z,56.64
2019-03-08T03:33:51.539Z,56.36
2019-03-08T03:36:22.185Z,56.02
2019-03-08T03:38:52.694Z,55.20
2019-03-08T03:41:23.724Z,54.88
2019-03-08T03:43:54.218Z,54.49
2019-03-08T03:46:24.790Z,54.79
2019-03-08T03:48:56.710Z,54.67
2019-03-08T03:51:27.749Z,54.65
2019-03-08T03:53:58.533Z,55.02
2019-03-08T03:56:30.557Z,55.82
2019-03-08T03:59:01.182Z,56.34
2019-03-08T04:01:38.511Z,56.57
2019-03-08T04:04:08.959Z,56.66
2019-03-08T04:06:39.513Z,56.40
2019-03-08T04:09:13.676Z,56.04
2019-03-08T04:11:44.260Z,56.13
2019-03-08T04:14:14.869Z,56.38
2019-03-08T04:16:45.582Z,56.96
2019-03-08T04:19:17.221Z,57.26
2019-03-08T04:21:47.696Z,57.77
2019-03-08T04:24:18.738Z,58.22
2019-03-08T04:26:49.586Z,58.38
2019-03-08T04:29:20.050Z,58.74
2019-03-08T04:31:50.719Z,58.82
2019-03-08T04:34:21.267Z,58.98
2019-03-08T04:36:51.825Z,59.24
2019-03-08T04:39:22.460Z,59.37
2019-03-08T04:41:53.048Z,59.31
2019-03-08T04:44:23.868Z,59.32
2019-03-08T04:46:54.700Z,59.38
2019-03-08T04:49:26.236Z,59.37
2019-03-08T04:51:57.849Z,59.52
2019-03-08T04:54:28.341Z,59.37
2019-03-08T04:56:59.195Z,59.35
2019-03-08T04:59:29.821Z,59.51
2019-03-08T05:02:01.609Z,59.38
2019-03-08T05:04:32.298Z,59.60
2019-03-08T05:07:02.794Z,59.50
2019-03-08T05:09:33.572Z,59.44
2019-03-08T05:12:04.235Z,59.52
2019-03-08T05:14:35.057Z,59.56
2019-03-08T05:17:06.145Z,59.45
2019-03-08T05:19:36.847Z,59.49
2019-03-08T05:22:07.235Z,59.38
2019-03-08T05:24:37.860Z,59.31
2019-03-08T05:27:09.229Z,59.28
2019-03-08T05:29:42.340Z,59.22
2019-03-08T05:32:14.564Z,59.23
2019-03-08T05:34:45.007Z,59.15
2019-03-08T05:37:15.847Z,59.12
2019-03-08T05:39:46.248Z,59.13
2019-03-08T05:42:16.846Z,59.25
2019-03-08T05:44:47.608Z,59.11
2019-03-08T05:47:18.262Z,59.03
2019-03-08T05:49:48.954Z,59.14
2019-03-08T05:52:19.662Z,59.20
2019-03-08T05:54:50.356Z,59.40
2019-03-08T05:57:21.699Z,59.35
2019-03-08T05:59:54.489Z,59.26
2019-03-08T06:02:24.988Z,59.56
2019-03-08T06:04:55.554Z,59.42
2019-03-08T06:07:26.286Z,59.51
2019-03-08T06:09:56.895Z,59.46
2019-03-08T06:12:27.641Z,59.54
2019-03-08T06:14:59.205Z,59.50
2019-03-08T06:17:29.576Z,59.53
2019-03-08T06:20:00.248Z,59.25
2019-03-08T06:22:31.085Z,58.99
2019-03-08T06:25:01.528Z,58.95
2019-03-08T06:27:32.234Z,58.80
2019-03-08T06:30:02.970Z,58.32
2019-03-08T06:32:33.738Z,58.23
2019-03-08T06:35:05.942Z,57.98
2019-03-08T06:37:37.156Z,57.95
2019-03-08T06:40:07.730Z,57.81
2019-03-08T06:42:38.295Z,57.66
2019-03-08T06:45:10.288Z,57.29
2019-03-08T06:47:40.690Z,57.24
2019-03-08T06:50:11.975Z,56.97
2019-03-08T06:52:42.358Z,56.72
2019-03-08T06:55:13.059Z,56.69
2019-03-08T06:57:43.568Z,56.20
2019-03-08T07:00:41.349Z,56.21
2019-03-08T07:03:11.977Z,55.98
2019-03-08T07:05:42.676Z,56.09
2019-03-08T07:08:13.698Z,55.95
2019-03-08T07:10:44.382Z,55.56
2019-03-08T07:13:14.910Z,55.80
2019-03-08T07:15:45.261Z,55.64
2019-03-08T07:18:16.141Z,55.02
2019-03-08T07:21:00.512Z,55.01
2019-03-08T07:23:43.993Z,54.85
2019-03-08T07:26:42.492Z,54.42
2019-03-08T07:29:30.742Z,54.20
2019-03-08T07:32:09.295Z,53.66
2019-03-08T07:34:59.160Z,53.51
2019-03-08T07:37:40.296Z,53.24
2019-03-08T07:40:47.667Z,53.00
2019-03-08T07:43:51.911Z,52.99
2019-03-08T07:46:59.767Z,52.92
2019-03-08T07:49:39.554Z,52.88
2019-03-08T07:52:19.531Z,53.06
2019-03-08T07:54:56.049Z,52.56
2019-03-08T07:57:37.281Z,52.45
2019-03-08T08:00:17.262Z,52.18
2019-03-08T08:03:06.873Z,52.19
2019-03-08T08:05:47.178Z,51.90
2019-03-08T08:08:51.677Z,51.81
2019-03-08T08:11:31.540Z,51.64
2019-03-08T08:14:19.243Z,51.45
2019-03-08T08:17:17.435Z,50.99
2019-03-08T08:20:05.399Z,50.80
2019-03-08T08:22:57.459Z,50.79
2019-03-08T08:25:56.553Z,50.83
2019-03-08T08:28:35.760Z,50.88
2019-03-08T08:31:31.386Z,50.72
2019-03-08T08:34:29.507Z,50.17
2019-03-08T08:37:12.923Z,49.90
2019-03-08T08:40:02.649Z,50.19
2019-03-08T08:42:58.487Z,49.96
2019-03-08T08:45:50.593Z,50.05
2019-03-08T08:48:45.958Z,48.89
2019-03-08T08:51:24.478Z,48.85
2019-03-08T08:54:08.797Z,48.53
2019-03-08T08:56:58.163Z,48.17
2019-03-08T08:59:57.089Z,48.18
2019-03-08T09:02:49.445Z,47.99
2019-03-08T09:05:50.846Z,47.54
2019-03-08T09:08:49.738Z,47.63
2019-03-08T09:11:24.687Z,47.75
2019-03-08T09:14:26.658Z,47.68
2019-03-08T09:17:25.441Z,47.23
2019-03-08T09:20:14.820Z,46.51
2019-03-08T09:22:58.264Z,46.51
2019-03-08T09:26:03.009Z,45.91
2019-03-08T09:28:52.480Z,46.00
2019-03-08T09:31:40.664Z,45.76
2019-03-08T09:34:29.217Z,45.69
2019-03-08T09:37:34.115Z,44.86
2019-03-08T09:40:24.031Z,44.42
2019-03-08T09:43:28.448Z,43.66
2019-03-08T09:46:26.606Z,43.61
2019-03-08T09:49:25.279Z,43.99
2019-03-08T09:52:21.254Z,42.95
2019-03-08T09:55:11.174Z,42.83
2019-03-08T09:57:55.839Z,42.65
2019-03-08T10:00:47.905Z,42.52
2019-03-08T10:03:41.648Z,42.86
2019-03-08T10:06:27.860Z,41.81
2019-03-08T10:09:16.298Z,41.92
2019-03-08T10:12:13.010Z,42.00
2019-03-08T10:15:01.698Z,41.74
2019-03-08T10:17:52.411Z,41.28
2019-03-08T10:20:42.132Z,41.40
2019-03-08T10:23:34.527Z,41.40
2019-03-08T10:26:23.485Z,41.17
2019-03-08T10:29:16.116Z,41.29
2019-03-08T10:32:20.758Z,41.22
2019-03-08T10:35:23.302Z,41.25
2019-03-08T10:37:59.971Z,41.67
2019-03-08T10:40:49.274Z,41.67
2019-03-08T10:43:44.514Z,41.79
2019-03-08T10:46:32.806Z,41.88
2019-03-08T10:49:17.850Z,41.61
2019-03-08T10:52:04.033Z,41.29
2019-03-08T10:54:54.122Z,41.22
2019-03-08T10:57:48.600Z,41.22
2019-03-08T11:00:35.035Z,41.04
2019-03-08T11:03:40.228Z,40.73
2019-03-08T11:06:26.090Z,40.31
2019-03-08T11:09:21.403Z,40.81
2019-03-08T11:12:13.749Z,40.69
2019-03-08T11:15:02.986Z,40.61
2019-03-08T11:17:50.946Z,40.28
2019-03-08T11:20:39.115Z,40.65
2019-03-08T11:23:18.237Z,40.65
2019-03-08T11:26:10.636Z,40.64
2019-03-08T11:28:52.194Z,39.41
2019-03-08T11:31:35.051Z,40.02
2019-03-08T11:34:30.821Z,38.80
2019-03-08T11:37:20.688Z,38.74
2019-03-08T11:40:13.197Z,38.52
2019-03-08T11:42:50.834Z,37.09
2019-03-08T11:45:49.608Z,37.09
2019-03-08T11:48:30.048Z,37.14
2019-03-08T11:51:22.374Z,37.74
2019-03-08T11:54:09.934Z,38.18
2019-03-08T11:57:02.490Z,37.90
2019-03-08T11:59:49.929Z,38.18
2019-03-08T12:02:41.299Z,37.25
2019-03-08T12:05:30.789Z,37.41
2019-03-08T12:08:11.588Z,37.41
2019-03-08T12:11:08.963Z,36.21
2019-03-08T12:13:51.525Z,35.34
2019-03-08T12:16:40.318Z,35.73
2019-03-08T12:19:29.977Z,35.22
2019-03-08T12:22:35.229Z,34.09
2019-03-08T12:25:25.703Z,32.59
2019-03-08T12:28:14.244Z,31.27
2019-03-08T12:31:04.082Z,31.32
2019-03-08T12:33:52.416Z,32.87
2019-03-08T12:36:39.917Z,31.79
2019-03-08T12:39:23.539Z,33.16
2019-03-08T12:42:09.127Z,32.27
2019-03-08T12:44:49.602Z,32.15
2019-03-08T12:47:37.984Z,30.67
2019-03-08T12:50:20.384Z,31.51
2019-03-08T12:53:09.717Z,32.41
2019-03-08T12:56:17.663Z,31.54
2019-03-08T12:59:05.848Z,31.96
2019-03-08T13:02:12.125Z,32.12
2019-03-08T13:05:10.700Z,32.93
2019-03-08T13:07:50.659Z,33.52
2019-03-08T13:10:21.149Z,33.75
2019-03-08T13:12:51.664Z,33.54
2019-03-08T13:15:22.402Z,34.72
2019-03-08T13:17:52.941Z,34.38
2019-03-08T13:20:23.441Z,33.73
2019-03-08T13:22:53.795Z,34.42
2019-03-08T13:25:24.365Z,35.21
2019-03-08T13:27:54.845Z,35.41
2019-03-08T13:30:25.886Z,35.13
2019-03-08T13:32:56.482Z,34.43
2019-03-08T13:35:27.153Z,34.12
2019-03-08T13:37:58.364Z,32.77
2019-03-08T13:40:29.197Z,32.74
2019-03-08T13:42:59.687Z,33.39
2019-03-08T13:45:30.215Z,33.21
2019-03-08T13:48:01.102Z,33.94
2019-03-08T13:50:32.011Z,35.17
2019-03-08T13:53:03.080Z,35.17
2019-03-08T13:55:34.456Z,34.35
2019-03-08T13:58:06.113Z,34.66
2019-03-08T14:00:36.946Z,34.08
2019-03-08T14:03:07.665Z,34.19
2019-03-08T14:05:39.504Z,34.80
2019-03-08T14:08:10.863Z,35.41
2019-03-08T14:10:41.453Z,35.90
2019-03-08T14:13:12.260Z,35.91
2019-03-08T14:15:42.655Z,35.68
2019-03-08T14:18:13.433Z,35.46
2019-03-08T14:20:44.171Z,35.46
2019-03-08T14:23:14.937Z,35.77
2019-03-08T14:25:46.770Z,35.26
2019-03-08T14:28:17.436Z,35.20
2019-03-08T14:30:58.072Z,35.44
2019-03-08T14:33:28.633Z,35.84
2019-03-08T14:35:59.240Z,36.24
2019-03-08T14:38:37.194Z,36.36
2019-03-08T14:41:30.746Z,35.30
2019-03-08T14:44:31.334Z,35.39
2019-03-08T14:47:19.066Z,35.35
2019-03-08T14:49:50.384Z,35.24
2019-03-08T14:52:21.754Z,34.81
2019-03-08T14:54:53.043Z,34.63
2019-03-08T14:57:27.249Z,34.95
2019-03-08T14:59:56.311Z,34.99
2019-03-08T15:02:26.762Z,36.17
2019-03-08T15:04:57.519Z,36.17
2019-03-08T15:07:29.885Z,36.19
2019-03-08T15:10:02.401Z,36.46
2019-03-08T15:12:33.059Z,37.29
2019-03-08T15:15:07.366Z,37.73
2019-03-08T15:17:39.037Z,36.81
2019-03-08T15:20:15.205Z,36.24
2019-03-08T15:22:43.655Z,36.44
2019-03-08T15:25:14.838Z,35.81
2019-03-08T15:27:45.733Z,35.00
2019-03-08T15:30:17.230Z,34.79
2019-03-08T15:32:48.006Z,34.94
2019-03-08T15:35:18.843Z,34.96
2019-03-08T15:37:50.146Z,35.57
2019-03-08T15:40:21.114Z,35.64
2019-03-08T15:42:51.811Z,35.39
2019-03-08T15:45:22.167Z,35.85
2019-03-08T15:47:52.536Z,36.42
2019-03-08T15:50:23.109Z,36.80
2019-03-08T15:52:53.550Z,37.13
2019-03-08T15:55:24.930Z,37.51
2019-03-08T15:57:55.291Z,37.71
2019-03-08T16:00:25.628Z,38.16
2019-03-08T16:02:56.298Z,38.48
2019-03-08T16:05:28.406Z,38.63
2019-03-08T16:08:01.915Z,39.06
2019-03-08T16:10:33.091Z,39.49
2019-03-08T16:13:03.889Z,39.79
2019-03-08T16:15:36.022Z,39.70
2019-03-08T16:18:06.908Z,39.68
2019-03-08T16:20:38.523Z,41.06
2019-03-08T16:23:11.426Z,41.61
2019-03-08T16:25:47.671Z,42.84
2019-03-08T16:28:14.702Z,43.98
2019-03-08T16:30:47.610Z,45.10
2019-03-08T16:33:25.541Z,46.38
2019-03-08T16:36:34.693Z,47.42
2019-03-08T16:39:34.666Z,48.30
2019-03-08T16:42:23.487Z,47.72
2019-03-08T16:45:22.377Z,47.64
2019-03-08T16:48:07.737Z,47.18
2019-03-08T16:51:05.906Z,46.75
2019-03-08T16:54:00.974Z,46.42
2019-03-08T16:57:00.809Z,42.66
2019-03-08T16:59:48.959Z,41.88
2019-03-08T17:02:47.487Z,41.49
2019-03-08T17:05:39.985Z,41.43
2019-03-08T17:08:30.110Z,42.23
2019-03-08T17:11:16.734Z,42.87
2019-03-08T17:14:21.323Z,43.36
2019-03-08T17:17:03.942Z,43.82
2019-03-08T17:19:40.859Z,44.42
2019-03-08T17:22:29.479Z,44.87
2019-03-08T17:25:11.604Z,45.33
2019-03-08T17:27:51.915Z,45.73
2019-03-08T17:30:33.975Z,46.01
2019-03-08T17:33:32.198Z,46.31
2019-03-08T17:36:21.368Z,46.59
2019-03-08T17:39:03.195Z,46.80
2019-03-08T17:41:48.075Z,47.21
2019-03-08T17:44:36.212Z,47.45
2019-03-08T17:47:16.109Z,47.76
2019-03-08T17:50:11.648Z,47.81
2019-03-08T17:53:05.244Z,47.13
2019-03-08T17:56:01.398Z,47.11
2019-03-08T17:58:50.673Z,47.46
2019-03-08T18:01:42.988Z,47.95
2019-03-08T18:04:37.505Z,48.66
2019-03-08T18:07:35.996Z,49.50
2019-03-08T18:10:27.970Z,49.94
2019-03-08T18:13:16.285Z,50.51
2019-03-08T18:16:23.576Z,50.86
2019-03-08T18:19:13.073Z,51.17
2019-03-08T18:22:02.458Z,51.67
2019-03-08T18:24:54.740Z,52.08
2019-03-08T18:27:44.134Z,52.49
2019-03-08T18:30:45.743Z,52.82
2019-03-08T18:33:24.020Z,52.92
2019-03-08T18:36:25.589Z,53.09
2019-03-08T18:39:15.048Z,53.12
2019-03-08T18:42:03.086Z,53.21
2019-03-08T18:44:58.560Z,53.57
2019-03-08T18:47:58.257Z,53.69
2019-03-08T18:50:50.787Z,54.04
2019-03-08T18:53:55.742Z,54.04
2019-03-08T18:56:47.840Z,54.26
2019-03-08T18:59:46.458Z,54.30
2019-03-08T19:02:39.068Z,54.53
2019-03-08T19:05:19.227Z,54.73
2019-03-08T19:08:09.045Z,55.07
2019-03-08T19:11:10.953Z,55.14
2019-03-08T19:14:11.239Z,55.38
2019-03-08T19:17:12.842Z,55.52
2019-03-08T19:19:59.551Z,55.47
2019-03-08T19:22:48.334Z,55.62
2019-03-08T19:25:31.709Z,55.59
2019-03-08T19:28:24.025Z,55.61
2019-03-08T19:31:13.459Z,55.48
2019-03-08T19:34:00.268Z,54.84
2019-03-08T19:36:52.585Z,55.10
2019-03-08T19:39:40.610Z,55.72
2019-03-08T19:42:36.301Z,56.05
2019-03-08T19:45:26.327Z,55.56
2019-03-08T19:48:06.290Z,55.86
2019-03-08T19:50:55.624Z,55.26
2019-03-08T19:53:42.969Z,55.01
2019-03-08T19:56:30.385Z,54.19
2019-03-08T19:59:08.803Z,54.85
2019-03-08T20:01:52.511Z,54.51
2019-03-08T20:04:43.048Z,54.46
2019-03-08T20:07:38.450Z,54.66
2019-03-08T20:10:26.979Z,55.56
2019-03-08T20:13:10.187Z,55.68
2019-03-08T20:16:02.530Z,55.84
2019-03-08T20:18:50.592Z,55.42
2019-03-08T20:21:55.150Z,54.88
2019-03-08T20:24:50.947Z,54.47
2019-03-08T20:27:58.419Z,54.20
2019-03-08T20:30:56.746Z,53.62
2019-03-08T20:33:58.051Z,54.01
2019-03-08T20:36:46.298Z,55.51
2019-03-08T20:39:24.545Z,56.11
2019-03-08T20:42:09.089Z,55.86
2019-03-08T20:44:57.301Z,55.27
2019-03-08T20:47:30.245Z,54.42
2019-03-08T20:50:00.811Z,53.77
2019-03-08T20:52:32.477Z,53.10
2019-03-08T20:55:02.910Z,52.75
2019-03-08T20:57:33.477Z,52.37
2019-03-08T21:00:04.089Z,52.22
2019-03-08T21:02:35.146Z,51.79
2019-03-08T21:05:06.717Z,51.49
2019-03-08T21:07:37.155Z,51.06
2019-03-08T21:10:08.324Z,50.87
2019-03-08T21:12:38.789Z,50.48
2019-03-08T21:15:11.908Z,50.48
2019-03-08T21:17:42.318Z,50.91
2019-03-08T21:20:13.417Z,51.16
2019-03-08T21:22:44.012Z,51.91
2019-03-08T21:25:15.592Z,52.17
2019-03-08T21:27:47.254Z,52.29
2019-03-08T21:30:18.333Z,52.29
2019-03-08T21:32:49.109Z,52.15
2019-03-08T21:35:20.364Z,52.14
2019-03-08T21:37:50.999Z,52.57
2019-03-08T21:40:21.887Z,52.62
2019-03-08T21:42:52.907Z,52.57
2019-03-08T21:45:24.953Z,52.97
2019-03-08T21:47:56.738Z,53.18
2019-03-08T21:50:27.213Z,53.41
2019-03-08T21:52:58.030Z,53.50
2019-03-08T21:55:28.903Z,53.63
2019-03-08T21:57:59.939Z,53.64
2019-03-08T22:00:31.885Z,53.35
2019-03-08T22:03:02.994Z,52.91
2019-03-08T22:05:35.923Z,53.14
2019-03-08T22:08:06.671Z,53.09
2019-03-08T22:10:54.664Z,52.83
2019-03-08T22:13:25.827Z,52.81
2019-03-08T22:15:56.917Z,52.88
2019-03-08T22:18:27.457Z,52.79
2019-03-08T22:20:58.433Z,53.18
2019-03-08T22:23:31.302Z,53.28
2019-03-08T22:26:02.168Z,53.60
2019-03-08T22:28:32.752Z,53.53
2019-03-08T22:31:03.389Z,53.52
2019-03-08T22:33:33.840Z,53.70
2019-03-08T22:36:04.350Z,54.45
2019-03-08T22:38:37.509Z,54.82
2019-03-08T22:41:07.963Z,54.85
2019-03-08T22:43:38.631Z,55.14
2019-03-08T22:46:09.129Z,55.34
2019-03-08T22:48:41.676Z,55.47
2019-03-08T22:51:11.940Z,55.84
2019-03-08T22:53:45.026Z,56.21
2019-03-08T22:56:17.923Z,56.44
2019-03-08T22:58:50.053Z,57.91
2019-03-08T23:01:25.347Z,58.97
2019-03-08T23:04:00.354Z,59.67
2019-03-08T23:06:34.176Z,60.83
2019-03-08T23:09:10.426Z,61.56
2019-03-08T23:11:41.626Z,62.41
2019-03-08T23:14:14.360Z,62.69
2019-03-08T23:16:45.618Z,63.17
2019-03-08T23:19:17.333Z,62.92
2019-03-08T23:21:49.823Z,63.20
2019-03-08T23:24:21.969Z,62.92
2019-03-08T23:27:11.159Z,63.18
2019-03-08T23:29:55.225Z,63.48
2019-03-08T23:32:32.062Z,63.48
2019-03-08T23:35:03.357Z,63.74
2019-03-08T23:37:35.425Z,64.00
2019-03-08T23:40:06.974Z,64.38
2019-03-08T23:42:38.735Z,64.32
2019-03-08T23:45:11.214Z,64.47
2019-03-08T23:47:42.719Z,64.57
2019-03-08T23:50:14.287Z,64.59
2019-03-08T23:52:45.937Z,64.79
2019-03-08T23:55:18.025Z,65.32
2019-03-08T23:57:49.574Z,65.56
